Time;durP1;ratioP1;P1;durP2;ratioP2;P2;SDS_P1;SDS_P2;PMS_P1;PMS_P2;Temp;Humidity;BMP_temperature;BMP_pressure;BME280_temperature;BME280_humidity;BME280_pressure;Samples;Min_cycle;Max_cycle;Signal;HPM_P1;HPM_P2
2022/05/31 00:01:08;;;;;;;8.07;6.30;;;;;;;11.05;60.63;99325.13;5004756;28;20042;-68
2022/05/31 00:03:34;;;;;;;9.73;6.00;;;;;;;11.07;59.98;99317.09;5006352;28;20034;-65
2022/05/31 00:05:59;;;;;;;9.75;6.78;;;;;;;11.10;60.23;99314.28;5006249;28;20034;-68
2022/05/31 00:08:24;;;;;;;10.15;5.72;;;;;;;11.12;60.11;99312.41;5008661;28;20042;-67
2022/05/31 00:10:50;;;;;;;10.45;5.72;;;;;;;11.15;59.67;99302.53;5009217;28;20052;-65
2022/05/31 00:13:15;;;;;;;10.02;5.60;;;;;;;11.18;59.96;99304.16;5009211;28;20041;-66
2022/05/31 00:15:40;;;;;;;11.45;5.55;;;;;;;11.15;59.82;99313.09;5009813;28;20120;-67
2022/05/31 00:18:06;;;;;;;9.48;5.97;;;;;;;11.14;59.90;99310.53;5007872;28;20038;-66
2022/05/31 00:20:31;;;;;;;10.43;7.13;;;;;;;11.17;59.84;99295.38;5005607;28;21064;-67
2022/05/31 00:22:57;;;;;;;7.35;5.70;;;;;;;11.20;59.38;99293.47;5007611;28;20042;-66
2022/05/31 00:25:22;;;;;;;7.03;5.60;;;;;;;11.19;60.07;99300.56;5006969;28;20041;-66
2022/05/31 00:27:48;;;;;;;13.02;6.68;;;;;;;11.16;60.40;99296.31;5005974;28;20422;-66
2022/05/31 00:30:15;;;;;;;15.75;6.55;;;;;;;11.16;60.40;99295.47;5004333;28;20061;-64
2022/05/31 00:32:45;;;;;;;10.88;7.10;;;;;;;11.16;60.70;99290.19;5005095;28;20049;-67
2022/05/31 00:35:26;;;;;;;9.50;6.95;;;;;;;11.17;60.50;99297.16;5003828;28;20037;-66
2022/05/31 00:37:54;;;;;;;9.95;6.40;;;;;;;11.14;60.66;99292.91;5003287;28;20111;-67
2022/05/31 00:40:22;;;;;;;7.68;5.53;;;;;;;11.15;60.77;99291.97;5004125;28;20187;-66
2022/05/31 00:42:53;;;;;;;8.68;5.53;;;;;;;11.18;60.25;99290.94;5003585;28;20124;-65
2022/05/31 00:45:19;;;;;;;10.65;7.07;;;;;;;11.18;60.50;99286.50;5003833;28;20065;-66
2022/05/31 00:47:46;;;;;;;9.13;6.65;;;;;;;11.20;60.36;99290.84;5003048;28;20057;-65
2022/05/31 00:50:23;;;;;;;10.88;6.50;;;;;;;11.21;60.56;99293.41;5003895;28;20045;-65
2022/05/31 00:52:52;;;;;;;10.25;5.90;;;;;;;11.21;60.39;99296.03;5003535;28;20044;-65
2022/05/31 00:55:54;;;;;;;10.40;5.90;;;;;;;11.20;60.82;99289.06;5002666;28;20387;-65
2022/05/31 00:58:42;;;;;;;6.82;5.68;;;;;;;11.23;60.76;99285.41;5003498;28;20050;-66
2022/05/31 01:01:12;;;;;;;7.20;5.25;;;;;;;11.20;60.71;99285.56;4998480;28;20120;-64
2022/05/31 01:03:41;;;;;;;8.68;6.35;;;;;;;11.17;61.68;99286.59;5003777;28;20038;-66
2022/05/31 01:06:07;;;;;;;8.73;5.75;;;;;;;11.22;61.55;99276.63;5003145;28;20101;-65
2022/05/31 01:08:34;;;;;;;8.35;5.93;;;;;;;11.28;61.81;99270.13;5003684;28;20095;-67
2022/05/31 01:11:00;;;;;;;11.27;6.28;;;;;;;11.19;62.34;99268.88;5003976;28;20030;-66
2022/05/31 01:13:28;;;;;;;11.10;6.50;;;;;;;11.15;63.08;99270.03;5003583;28;21061;-67
2022/05/31 01:16:04;;;;;;;16.08;6.72;;;;;;;11.10;62.93;99265.03;5003438;28;20038;-66
2022/05/31 01:18:30;;;;;;;10.43;6.57;;;;;;;11.08;63.10;99268.69;5003808;28;20132;-66
2022/05/31 01:20:55;;;;;;;10.10;6.57;;;;;;;11.02;63.47;99261.97;5003620;28;20172;-66
2022/05/31 01:23:24;;;;;;;9.73;6.55;;;;;;;11.04;63.87;99259.25;5003164;28;20045;-66
2022/05/31 01:26:10;;;;;;;8.48;6.35;;;;;;;11.06;63.90;99266.16;5002798;28;20087;-67
2022/05/31 01:28:42;;;;;;;;;;;;;;;11.07;63.75;99267.81;5003798;28;20089;-67
2022/05/31 01:31:15;;;;;;;8.88;6.00;;;;;;;11.07;62.99;99261.72;5003508;28;19917;-65
2022/05/31 01:34:06;;;;;;;10.40;5.90;;;;;;;11.06;63.33;99260.03;5003450;28;20037;-67
2022/05/31 01:36:43;;;;;;;7.90;5.85;;;;;;;11.06;63.39;99252.13;5002195;28;20049;-66
2022/05/31 01:39:16;;;;;;;7.93;6.13;;;;;;;11.02;63.79;99251.44;5003614;28;20092;-67
2022/05/31 01:41:53;;;;;;;9.63;7.28;;;;;;;10.93;63.84;99247.56;5003016;28;20065;-66
2022/05/31 01:44:21;;;;;;;9.90;5.72;;;;;;;10.89;63.73;99246.03;5002829;28;20042;-67
2022/05/31 01:46:49;;;;;;;11.13;6.15;;;;;;;10.88;64.31;99247.00;5002501;28;20497;-66
2022/05/31 01:49:15;;;;;;;11.55;6.15;;;;;;;10.85;64.66;99233.13;5003373;28;20025;-66
2022/05/31 01:51:43;;;;;;;8.27;6.38;;;;;;;10.81;65.06;99243.00;5003302;28;20651;-68
2022/05/31 01:54:10;;;;;;;11.93;5.43;;;;;;;10.80;65.10;99237.81;5004065;28;20038;-67
2022/05/31 01:56:36;;;;;;;7.55;6.55;;;;;;;10.84;64.73;99239.34;5002666;28;20045;-64
2022/05/31 01:59:03;;;;;;;9.85;6.55;;;;;;;10.84;64.67;99234.91;5002889;28;20037;-65
2022/05/31 02:01:30;;;;;;;11.98;6.82;;;;;;;10.81;64.87;99236.91;5005802;28;20056;-67
2022/05/31 02:03:56;;;;;;;11.52;5.85;;;;;;;10.84;64.47;99234.06;5006485;28;20112;-67
2022/05/31 02:06:26;;;;;;;8.93;6.68;;;;;;;10.85;63.85;99226.06;5006163;28;20120;-66
2022/05/31 02:08:51;;;;;;;8.00;6.03;;;;;;;10.85;64.48;99233.13;5005020;28;20056;-66
2022/05/31 02:11:16;;;;;;;9.45;6.20;;;;;;;10.83;64.49;99225.31;5006436;28;20502;-67
2022/05/31 02:13:42;;;;;;;6.88;5.80;;;;;;;10.87;64.77;99229.44;5006424;28;20038;-67
2022/05/31 02:16:07;;;;;;;10.80;6.75;;;;;;;10.90;64.41;99236.34;5006068;28;20041;-67
2022/05/31 02:21:17;;;;;;;8.18;6.35;;;;;;;10.89;65.21;99234.66;5006025;28;20103;-67
2022/05/31 02:23:42;;;;;;;6.53;5.65;;;;;;;10.85;65.15;99230.50;5006531;28;20034;-66
2022/05/31 02:26:07;;;;;;;10.48;7.13;;;;;;;10.81;65.62;99232.47;5005583;28;20097;-66
2022/05/31 02:28:33;;;;;;;7.55;6.55;;;;;;;10.77;65.83;99224.84;5006006;28;20037;-67
2022/05/31 02:30:58;;;;;;;9.05;6.25;;;;;;;10.72;66.12;99223.31;5006203;28;20038;-67
2022/05/31 02:33:24;;;;;;;8.85;6.93;;;;;;;10.67;66.19;99225.38;5006149;28;20049;-65
2022/05/31 02:35:49;;;;;;;9.32;6.25;;;;;;;10.69;66.31;99225.28;5005434;28;20521;-67
2022/05/31 02:38:15;;;;;;;7.05;5.63;;;;;;;10.70;66.55;99222.53;5005930;28;20468;-65
2022/05/31 02:40:40;;;;;;;11.80;6.53;;;;;;;10.69;66.87;99217.38;5006404;28;20048;-67
2022/05/31 02:43:05;;;;;;;8.80;6.10;;;;;;;10.69;66.21;99223.50;5003923;28;20120;-66
2022/05/31 02:45:31;;;;;;;10.63;7.03;;;;;;;10.68;66.21;99219.16;5006306;28;20152;-67
2022/05/31 02:47:56;;;;;;;9.25;6.63;;;;;;;10.66;66.05;99217.56;5005136;28;20816;-66
2022/05/31 02:50:21;;;;;;;7.85;6.63;;;;;;;10.67;65.81;99222.72;5005858;28;20099;-68
2022/05/31 02:52:47;;;;;;;9.27;7.13;;;;;;;10.67;66.55;99216.59;5004228;28;20100;-66
2022/05/31 02:55:12;;;;;;;12.27;6.93;;;;;;;10.66;66.02;99217.56;5005832;28;20058;-67
2022/05/31 02:57:37;;;;;;;12.77;6.80;;;;;;;10.64;66.73;99217.63;5005320;28;20068;-65
2022/05/31 03:00:04;;;;;;;9.38;6.28;;;;;;;10.62;67.29;99206.34;5005763;28;20401;-67
2022/05/31 03:02:29;;;;;;;10.68;5.65;;;;;;;10.58;67.16;99209.22;5006057;28;20935;-67
2022/05/31 03:04:55;;;;;;;9.43;7.13;;;;;;;10.54;67.61;99213.84;5006325;28;20021;-66
2022/05/31 03:07:20;;;;;;;13.85;6.75;;;;;;;10.52;67.86;99200.75;5005137;28;20685;-68
2022/05/31 03:09:46;;;;;;;10.43;7.10;;;;;;;10.50;67.86;99207.06;5005870;28;20497;-67
2022/05/31 03:12:17;;;;;;;10.65;6.40;;;;;;;10.48;68.19;99199.25;5005926;28;20109;-68
2022/05/31 03:14:54;;;;;;;10.32;6.43;;;;;;;10.48;68.24;99204.53;5005835;28;20087;-65
2022/05/31 03:17:26;;;;;;;8.02;6.07;;;;;;;10.49;67.90;99205.38;5005607;28;20042;-65
2022/05/31 03:19:58;;;;;;;7.13;5.25;;;;;;;10.49;68.03;99198.31;5005738;28;20048;-65
2022/05/31 03:22:28;;;;;;;7.25;6.03;;;;;;;10.51;68.00;99198.22;5005559;28;20048;-66
2022/05/31 03:25:07;;;;;;;8.45;7.05;;;;;;;10.51;68.10;99192.94;5005618;28;20041;-67
2022/05/31 03:27:32;;;;;;;7.40;6.18;;;;;;;10.55;68.37;99201.50;5005003;28;20038;-66
2022/05/31 03:30:01;;;;;;;10.23;6.45;;;;;;;10.55;68.26;99189.19;5005133;28;20108;-67
2022/05/31 03:32:27;;;;;;;7.50;5.97;;;;;;;10.55;68.05;99190.97;5003398;28;20045;-65
2022/05/31 03:34:53;;;;;;;7.65;5.82;;;;;;;10.62;67.46;99194.94;5004919;28;20041;-65
2022/05/31 03:37:18;;;;;;;6.93;5.60;;;;;;;10.64;67.33;99193.91;5002504;28;20030;-66
2022/05/31 03:39:44;;;;;;;7.18;6.00;;;;;;;10.67;66.93;99188.44;5004261;28;20040;-65
2022/05/31 03:42:09;;;;;;;8.23;6.30;;;;;;;10.69;66.99;99185.75;5004870;28;20034;-64
2022/05/31 03:44:35;;;;;;;9.48;6.05;;;;;;;10.69;67.16;99193.66;5004372;28;20038;-66
2022/05/31 03:47:02;;;;;;;7.72;6.93;;;;;;;10.66;67.08;99194.69;5004350;28;20121;-67
2022/05/31 03:49:28;;;;;;;12.95;6.60;;;;;;;10.66;67.42;99191.19;5004572;28;20405;-65
2022/05/31 03:51:53;;;;;;;11.45;7.60;;;;;;;10.59;68.39;99179.31;5004804;28;20033;-66
2022/05/31 03:54:18;;;;;;;9.13;6.78;;;;;;;10.53;68.65;99181.38;5004638;28;20065;-66
2022/05/31 03:56:44;;;;;;;7.97;6.50;;;;;;;10.58;68.58;99188.16;5004331;28;20049;-67
2022/05/31 03:59:10;;;;;;;7.40;6.28;;;;;;;10.59;68.66;99188.06;5004339;28;20656;-65
2022/05/31 04:01:35;;;;;;;8.30;6.72;;;;;;;10.58;68.55;99183.72;5004738;28;20176;-66
2022/05/31 04:04:03;;;;;;;8.02;6.70;;;;;;;10.56;69.14;99188.25;5004796;28;20153;-66
2022/05/31 04:06:29;;;;;;;12.63;5.95;;;;;;;10.57;69.09;99187.31;5003730;28;20525;-65
2022/05/31 04:08:55;;;;;;;11.85;7.28;;;;;;;10.59;68.61;99188.06;5004421;28;20037;-65
2022/05/31 04:11:21;;;;;;;7.47;5.82;;;;;;;10.61;68.20;99194.09;5004579;28;20045;-66
2022/05/31 04:13:46;;;;;;;8.80;6.40;;;;;;;10.62;68.25;99193.16;5004625;28;20048;-66
2022/05/31 04:16:14;;;;;;;9.57;6.80;;;;;;;10.53;68.60;99191.06;5003627;28;20038;-66
2022/05/31 04:18:41;;;;;;;6.68;5.50;;;;;;;10.52;68.27;99194.63;5004564;28;20091;-67
2022/05/31 04:21:09;;;;;;;8.63;5.53;;;;;;;10.57;68.25;99189.94;5004068;28;20041;-65
2022/05/31 04:26:19;;;;;;;9.80;6.50;;;;;;;10.54;67.96;99182.22;5003013;28;20053;-69
2022/05/31 04:28:44;;;;;;;8.88;5.72;;;;;;;10.57;68.28;99186.47;5004872;28;20034;-66
2022/05/31 04:31:10;;;;;;;7.97;5.22;;;;;;;10.64;68.12;99207.09;5006127;28;20077;-68
2022/05/31 04:33:35;;;;;;;8.15;6.38;;;;;;;10.76;68.10;99208.16;5006143;28;20478;-67
2022/05/31 04:36:04;;;;;;;9.85;6.43;;;;;;;10.91;67.46;99216.94;5006339;28;20837;-67
2022/05/31 04:38:29;;;;;;;8.90;6.70;;;;;;;10.98;67.32;99202.47;5004511;28;20042;-66
2022/05/31 04:40:55;;;;;;;10.02;7.13;;;;;;;11.06;66.97;99202.84;5004186;28;20038;-66
2022/05/31 04:43:21;;;;;;;7.32;5.93;;;;;;;11.21;66.12;99211.59;5004100;28;20418;-66
2022/05/31 04:45:46;;;;;;;10.40;5.57;;;;;;;11.35;64.96;99201.06;5003766;28;20034;-65
2022/05/31 04:48:12;;;;;;;9.32;6.45;;;;;;;11.46;64.20;99210.94;5003175;28;20061;-64
2022/05/31 04:50:37;;;;;;;7.20;5.57;;;;;;;11.53;65.08;99212.25;5004017;28;20037;-66
2022/05/31 04:53:03;;;;;;;6.70;5.53;;;;;;;11.61;63.66;99222.34;5003962;28;20037;-66
2022/05/31 04:55:29;;;;;;;6.28;4.55;;;;;;;11.73;62.62;99226.84;5003640;28;20545;-65
2022/05/31 04:57:54;;;;;;;7.53;5.72;;;;;;;11.78;61.56;99219.47;5003091;28;20040;-65
2022/05/31 05:00:20;;;;;;;7.63;5.18;;;;;;;11.88;60.54;99221.56;5004550;28;20034;-66
2022/05/31 05:02:46;;;;;;;7.15;5.85;;;;;;;11.99;59.72;99234.97;5003148;28;20048;-66
2022/05/31 05:05:11;;;;;;;7.93;5.10;;;;;;;12.00;59.82;99226.06;5003606;28;20437;-65
2022/05/31 05:07:37;;;;;;;11.18;5.30;;;;;;;12.01;59.32;99233.03;5002844;28;20034;-66
2022/05/31 05:10:05;;;;;;;10.00;5.32;;;;;;;12.05;59.72;99236.34;5003253;28;20050;-65
2022/05/31 05:12:30;;;;;;;6.15;5.43;;;;;;;12.14;58.67;99233.13;5003709;28;20041;-69
2022/05/31 05:14:56;;;;;;;9.23;5.85;;;;;;;12.06;58.39;99241.56;5003150;28;20041;-67
2022/05/31 05:17:25;;;;;;;7.43;6.05;;;;;;;12.04;58.65;99246.06;5003465;28;20038;-67
2022/05/31 05:19:51;;;;;;;6.55;5.18;;;;;;;12.10;58.60;99250.94;5003943;28;20069;-67
2022/05/31 05:22:16;;;;;;;6.50;5.35;;;;;;;12.20;58.84;99253.84;5003344;28;20516;-64
2022/05/31 05:24:41;;;;;;;14.77;7.68;;;;;;;12.21;58.79;99245.00;5003502;28;20050;-67
2022/05/31 05:27:07;;;;;;;6.63;5.28;;;;;;;12.26;58.46;99253.47;5002838;28;20038;-65
2022/05/31 05:32:17;;;;;;;10.20;5.45;;;;;;;12.35;57.62;99254.66;5002931;28;20086;-65
2022/05/31 05:34:42;;;;;;;7.43;5.10;;;;;;;12.42;57.66;99251.50;5003990;28;20038;-64
2022/05/31 05:37:07;;;;;;;9.65;5.65;;;;;;;12.53;57.93;99248.19;5007114;28;20041;-66
2022/05/31 05:39:33;;;;;;;18.65;6.78;;;;;;;12.59;56.89;99252.22;5006504;28;20042;-64
2022/05/31 05:41:59;;;;;;;21.83;5.88;;;;;;;12.49;56.84;99259.06;5006941;28;20053;-63
2022/05/31 05:44:27;;;;;;;11.23;5.75;;;;;;;12.45;57.77;99258.38;5008008;28;20088;-65
2022/05/31 05:46:52;;;;;;;9.13;6.63;;;;;;;12.45;58.09;99256.63;5007054;28;20124;-66
2022/05/31 05:49:18;;;;;;;10.38;7.15;;;;;;;12.48;57.73;99247.63;5006870;28;20113;-62
2022/05/31 05:51:45;;;;;;;9.20;5.47;;;;;;;12.46;57.25;99254.81;5006851;28;20116;-62
2022/05/31 05:54:10;;;;;;;14.52;6.10;;;;;;;12.46;57.41;99244.25;5005224;28;20042;-65
2022/05/31 05:56:36;;;;;;;16.58;6.53;;;;;;;12.57;57.46;99241.72;5005607;28;20741;-62
2022/05/31 05:59:01;;;;;;;11.27;6.55;;;;;;;12.57;57.51;99251.44;5004717;28;20046;-66
2022/05/31 06:01:49;;;;;;;10.68;6.47;;;;;;;12.60;57.09;99252.13;5006490;28;20108;-64
2022/05/31 06:04:28;;;;;;;9.85;5.63;;;;;;;12.72;57.27;99247.78;5006288;28;20125;-65
2022/05/31 06:07:32;;;;;;;11.85;6.80;;;;;;;12.90;57.08;99248.38;5004157;28;20611;-64
2022/05/31 06:10:06;;;;;;;8.50;4.53;;;;;;;12.98;57.29;99243.41;5005479;28;20041;-65
2022/05/31 06:12:36;;;;;;;11.35;5.93;;;;;;;13.20;57.11;99239.28;5004586;28;20038;-65
2022/05/31 06:15:06;;;;;;;7.82;5.65;;;;;;;13.41;55.30;99240.47;5006100;28;20076;-65
2022/05/31 06:17:37;;;;;;;7.88;5.80;;;;;;;13.67;54.29;99235.16;5003526;28;20109;-65
2022/05/31 06:20:07;;;;;;;6.38;4.95;;;;;;;13.85;52.91;99233.81;5006088;28;20041;-67
2022/05/31 06:22:35;;;;;;;9.90;5.72;;;;;;;13.95;52.77;99231.38;5006478;28;20042;-66
2022/05/31 06:25:01;;;;;;;11.63;6.07;;;;;;;13.97;52.63;99226.81;5006212;28;20050;-67
2022/05/31 06:27:27;;;;;;;6.50;4.60;;;;;;;14.03;52.16;99234.34;5005822;28;20491;-66
2022/05/31 06:29:52;;;;;;;14.85;4.90;;;;;;;14.13;51.51;99226.56;5006486;28;20044;-66
2022/05/31 06:32:17;;;;;;;8.20;4.43;;;;;;;14.12;51.81;99224.84;5005976;28;20042;-65
2022/05/31 06:34:43;;;;;;;9.85;4.78;;;;;;;14.09;51.62;99225.91;5005942;28;20053;-65
2022/05/31 06:37:11;;;;;;;11.30;5.43;;;;;;;14.03;51.50;99226.38;5003764;28;20208;-66
2022/05/31 06:39:39;;;;;;;9.02;5.22;;;;;;;13.99;52.14;99221.41;5006011;28;20467;-65
2022/05/31 06:42:05;;;;;;;7.68;4.88;;;;;;;14.04;52.00;99221.91;5005468;28;20065;-66
2022/05/31 06:44:35;;;;;;;7.95;5.00;;;;;;;14.09;51.56;99225.06;5006286;28;20503;-65
2022/05/31 06:47:02;;;;;;;9.15;4.40;;;;;;;14.20;52.03;99226.94;5001634;28;20042;-67
2022/05/31 06:49:30;;;;;;;8.68;4.78;;;;;;;14.40;51.95;99223.69;5003532;28;20038;-67
2022/05/31 06:57:29;;;;;;;7.25;5.03;;;;;;;14.46;51.37;99225.03;5011231;28;20165;-66
2022/05/31 06:59:54;;;;;;;8.77;5.22;;;;;;;14.53;51.05;99227.13;5006061;28;20091;-65
2022/05/31 07:02:20;;;;;;;7.43;4.90;;;;;;;14.56;51.23;99220.75;5006007;28;20038;-67
2022/05/31 07:04:45;;;;;;;6.78;4.68;;;;;;;14.53;51.40;99224.47;5005655;28;20068;-65
2022/05/31 07:07:11;;;;;;;7.13;4.85;;;;;;;14.50;51.42;99229.16;5005791;28;20413;-66
2022/05/31 07:09:36;;;;;;;7.10;5.22;;;;;;;14.45;51.71;99229.50;5006201;28;20034;-66
2022/05/31 07:12:02;;;;;;;8.90;4.63;;;;;;;14.51;51.75;99225.53;5005825;28;20593;-66
2022/05/31 07:14:27;;;;;;;6.35;4.05;;;;;;;14.60;51.42;99225.72;5006301;28;20046;-66
2022/05/31 07:16:53;;;;;;;9.25;4.80;;;;;;;14.61;51.27;99237.16;5006850;28;20045;-69
2022/05/31 07:19:19;;;;;;;9.75;5.72;;;;;;;14.73;51.53;99232.75;5005815;28;20485;-67
2022/05/31 07:21:44;;;;;;;7.05;4.30;;;;;;;14.84;51.24;99231.94;5006084;28;20521;-66
2022/05/31 07:24:10;;;;;;;7.30;4.45;;;;;;;14.84;51.20;99234.59;5005334;28;20034;-66
2022/05/31 07:26:38;;;;;;;6.35;4.72;;;;;;;14.89;50.81;99229.78;5004738;28;20041;-65
2022/05/31 07:29:03;;;;;;;12.68;5.43;;;;;;;15.24;50.36;99219.97;5005240;28;20397;-65
2022/05/31 07:31:29;;;;;;;8.38;4.50;;;;;;;15.79;48.30;99219.25;5005224;28;20034;-66
2022/05/31 07:33:54;;;;;;;7.32;4.32;;;;;;;16.33;47.52;99218.41;5004200;28;20140;-66
2022/05/31 07:36:20;;;;;;;6.60;4.30;;;;;;;16.44;46.97;99220.19;5004800;28;20080;-65
2022/05/31 07:38:46;;;;;;;6.18;4.50;;;;;;;16.25;46.67;99226.19;5005384;28;20044;-64
2022/05/31 07:41:11;;;;;;;8.65;4.97;;;;;;;15.95;47.85;99221.53;5005293;28;20044;-65
2022/05/31 07:43:37;;;;;;;6.63;5.10;;;;;;;16.00;47.12;99224.69;5005578;28;20030;-67
2022/05/31 07:46:06;;;;;;;5.35;4.32;;;;;;;15.83;48.35;99220.72;5004824;28;20038;-66
2022/05/31 07:48:34;;;;;;;8.95;4.90;;;;;;;15.91;47.88;99222.75;5004133;28;20092;-66
2022/05/31 07:51:00;;;;;;;9.25;4.15;;;;;;;15.86;47.79;99225.78;5006016;28;20052;-66
2022/05/31 07:53:26;;;;;;;5.10;3.30;;;;;;;15.83;48.44;99221.56;5004919;28;20041;-65
2022/05/31 07:56:07;;;;;;;8.32;4.35;;;;;;;15.79;48.42;99219.25;5004607;28;20073;-65
2022/05/31 07:58:33;;;;;;;7.38;3.72;;;;;;;15.98;48.44;99224.81;5003516;28;20097;-64
2022/05/31 08:01:11;;;;;;;10.23;4.38;;;;;;;16.17;47.24;99223.28;5016448;28;20034;-65
2022/05/31 08:03:40;;;;;;;6.75;4.00;;;;;;;16.21;46.61;99219.44;5013870;28;20072;-66
2022/05/31 08:06:08;;;;;;;7.13;3.58;;;;;;;16.28;45.77;99220.63;5014729;28;20037;-66
2022/05/31 08:08:34;;;;;;;5.65;3.88;;;;;;;16.37;45.04;99211.06;5017251;28;20034;-67
2022/05/31 08:11:07;;;;;;;11.02;4.15;;;;;;;16.42;45.36;99211.50;5017979;28;20434;-68
2022/05/31 08:13:33;;;;;;;8.57;4.13;;;;;;;16.38;44.04;99216.22;5016777;28;20121;-68
2022/05/31 08:15:59;;;;;;;5.97;3.17;;;;;;;16.43;43.74;99207.88;5009932;28;20047;-65
2022/05/31 08:18:25;;;;;;;5.63;3.08;;;;;;;16.42;44.41;99215.00;5010036;28;20037;-66
2022/05/31 08:20:50;;;;;;;5.05;3.47;;;;;;;16.56;44.74;99211.19;5006239;28;20034;-64
2022/05/31 08:23:16;;;;;;;8.43;4.13;;;;;;;16.47;44.67;99204.00;5007662;28;20033;-66
2022/05/31 08:25:41;;;;;;;11.85;3.55;;;;;;;16.58;44.83;99203.91;5007742;28;20063;-67
2022/05/31 08:28:07;;;;;;;6.90;3.88;;;;;;;16.92;44.44;99207.28;5009541;28;20042;-67
2022/05/31 08:30:33;;;;;;;6.72;3.75;;;;;;;17.11;43.77;99192.41;5010290;28;20096;-65
2022/05/31 08:32:58;;;;;;;7.95;4.13;;;;;;;16.94;43.40;99209.81;5009587;28;20529;-66
2022/05/31 08:35:23;;;;;;;7.90;4.40;;;;;;;17.10;43.60;99198.69;5009540;28;20046;-67
2022/05/31 08:37:49;;;;;;;7.03;4.03;;;;;;;17.29;43.84;99197.97;5008063;28;20044;-66
2022/05/31 08:40:14;;;;;;;8.45;3.45;;;;;;;17.42;43.24;99197.75;5006738;28;20037;-66
2022/05/31 08:42:50;;;;;;;6.55;3.92;;;;;;;17.27;42.75;99202.56;5008624;28;20049;-65
2022/05/31 08:45:41;;;;;;;5.25;4.13;;;;;;;17.31;43.75;99198.69;5012703;28;20093;-65
2022/05/31 08:48:26;;;;;;;6.75;3.83;;;;;;;17.40;44.22;99200.56;5011731;28;20111;-67
2022/05/31 08:57:01;;;;;;;5.78;3.75;;;;;;;17.54;42.43;99205.50;5026688;28;20129;-66
2022/05/31 08:59:41;;;;;;;8.05;3.47;;;;;;;17.46;42.95;99204.50;5026140;28;20040;-67
2022/05/31 09:02:23;;;;;;;6.40;3.15;;;;;;;17.36;42.41;99205.28;5023547;28;20033;-67
2022/05/31 09:05:03;;;;;;;6.45;2.83;;;;;;;17.41;41.81;99201.41;5023389;28;20080;-66
2022/05/31 09:07:37;;;;;;;6.65;3.47;;;;;;;17.57;42.96;99205.25;5005043;28;20406;-65
2022/05/31 09:10:30;;;;;;;6.10;2.95;;;;;;;17.69;41.24;99197.13;5022735;28;20052;-66
2022/05/31 09:13:09;;;;;;;4.65;3.13;;;;;;;17.69;40.91;99197.97;5023117;28;20044;-66
2022/05/31 09:15:43;;;;;;;8.52;3.35;;;;;;;17.84;41.53;99202.97;5023300;28;20132;-65
2022/05/31 09:18:23;;;;;;;16.80;4.55;;;;;;;18.56;40.52;99201.81;5005748;28;20037;-66
2022/05/31 09:20:56;;;;;;;7.47;3.08;;;;;;;19.23;39.02;99200.06;5023089;28;20034;-67
2022/05/31 09:23:25;;;;;;;7.00;3.60;;;;;;;19.98;37.84;99195.50;5014773;28;20056;-67
2022/05/31 09:26:29;;;;;;;7.40;3.88;;;;;;;20.03;36.93;99200.41;5022719;28;20037;-66
2022/05/31 09:29:31;;;;;;;5.63;3.38;;;;;;;20.34;36.83;99191.03;5023693;28;20041;-67
2022/05/31 09:32:02;;;;;;;6.53;3.42;;;;;;;21.33;35.31;99187.28;5015856;28;20044;-66
2022/05/31 09:34:56;;;;;;;5.57;3.50;;;;;;;22.06;33.75;99181.41;5023139;28;20064;-67
2022/05/31 09:37:25;;;;;;;6.20;3.88;;;;;;;22.80;32.50;99183.38;5014270;28;20037;-66
2022/05/31 09:40:07;;;;;;;4.78;3.17;;;;;;;23.41;31.44;99181.94;5022871;28;20128;-66
2022/05/31 09:42:39;;;;;;;7.75;4.30;;;;;;;23.47;31.05;99181.25;5022625;28;20045;-66
2022/05/31 09:45:17;;;;;;;4.68;2.80;;;;;;;24.12;30.75;99181.97;5023194;28;20067;-67
2022/05/31 09:47:43;;;;;;;8.02;3.75;;;;;;;24.63;29.98;99174.25;5022072;28;20409;-67
2022/05/31 09:50:08;;;;;;;5.10;3.13;;;;;;;25.20;28.87;99176.44;5022528;28;20033;-67
2022/05/31 09:52:47;;;;;;;4.10;3.22;;;;;;;25.61;27.30;99165.16;5022929;28;20040;-67
2022/05/31 09:58:30;;;;;;;3.97;3.08;;;;;;;25.58;26.41;99175.50;5022110;28;21012;-65
2022/05/31 10:01:21;;;;;;;4.50;3.72;;;;;;;25.82;25.98;99169.81;5022692;28;20038;-65
2022/05/31 10:03:59;;;;;;;5.75;4.13;;;;;;;26.15;25.81;99166.66;5022402;28;20033;-69
2022/05/31 10:06:28;;;;;;;6.22;3.78;;;;;;;26.34;25.01;99160.63;5015112;28;20034;-67
2022/05/31 10:08:54;;;;;;;4.72;3.30;;;;;;;26.50;25.53;99156.00;5022577;28;20056;-67
2022/05/31 10:11:44;;;;;;;4.68;3.58;;;;;;;25.61;26.52;99159.75;5022587;28;20438;-66
2022/05/31 10:14:23;;;;;;;5.13;4.10;;;;;;;25.10;26.05;99148.03;5022265;28;20037;-66
2022/05/31 10:16:49;;;;;;;13.02;4.85;;;;;;;25.33;27.00;99145.28;5022028;28;20076;-65
2022/05/31 10:19:30;;;;;;;6.90;2.90;;;;;;;24.43;27.02;99150.44;5022715;28;20038;-68
2022/05/31 10:21:56;;;;;;;5.57;3.15;;;;;;;24.42;26.08;99153.34;5022666;28;20095;-67
2022/05/31 10:24:25;;;;;;;8.40;2.65;;;;;;;23.85;26.74;99154.53;5026472;28;20064;-67
2022/05/31 10:27:09;;;;;;;4.82;2.85;;;;;;;23.59;27.38;99149.41;5037620;28;20087;-66
2022/05/31 10:29:52;;;;;;;3.80;3.10;;;;;;;23.01;27.88;99156.81;5030537;28;20071;-66
2022/05/31 10:32:24;;;;;;;3.85;2.72;;;;;;;24.27;26.01;99147.03;5025336;28;20048;-67
2022/05/31 10:34:50;;;;;;;7.78;3.30;;;;;;;25.20;25.08;99141.38;5026057;28;20045;-67
2022/05/31 10:37:28;;;;;;;3.97;2.75;;;;;;;24.47;26.85;99140.19;5025442;28;20118;-65
2022/05/31 10:40:23;;;;;;;5.00;3.05;;;;;;;24.25;26.52;99149.91;5025895;28;20625;-68
2022/05/31 10:42:54;;;;;;;5.57;2.90;;;;;;;23.54;27.79;99147.25;5022760;28;20489;-65
2022/05/31 10:45:22;;;;;;;7.32;3.10;;;;;;;23.09;28.96;99137.16;5025899;28;20047;-66
2022/05/31 10:47:47;;;;;;;7.50;3.22;;;;;;;22.68;29.71;99132.63;5024492;28;20153;-66
2022/05/31 10:50:14;;;;;;;4.75;3.00;;;;;;;21.97;30.77;99127.88;5025958;28;20144;-65
2022/05/31 10:52:58;;;;;;;4.43;3.15;;;;;;;21.64;31.92;99135.84;5025851;28;20465;-65
2022/05/31 10:55:41;;;;;;;6.68;2.83;;;;;;;21.43;28.75;99139.78;5025740;28;20049;-65
2022/05/31 10:58:31;;;;;;;6.20;3.00;;;;;;;20.96;29.55;99128.59;5024760;28;20061;-66
2022/05/31 11:01:12;;;;;;;6.05;2.90;;;;;;;20.93;30.08;99128.94;5025688;28;20061;-67
2022/05/31 11:03:59;;;;;;;2.50;2.08;;;;;;;20.77;25.96;99135.88;5025112;28;20061;-65
2022/05/31 11:06:49;;;;;;;3.55;2.00;;;;;;;21.32;26.47;99137.34;5024646;28;20045;-67
2022/05/31 11:12:43;;;;;;;17.33;3.03;;;;;;;21.18;27.91;99146.00;5028619;28;20040;-69
2022/05/31 11:15:14;;;;;;;4.65;2.35;;;;;;;20.76;28.53;99152.91;5009126;28;20469;-67
2022/05/31 11:17:58;;;;;;;18.88;4.10;;;;;;;20.51;31.45;99159.91;5007983;28;20040;-68
2022/05/31 11:20:27;;;;;;;4.57;2.80;;;;;;;20.20;31.43;99169.31;5005386;28;20133;-66
2022/05/31 11:23:03;;;;;;;3.40;2.55;;;;;;;19.97;31.54;99167.06;5005413;28;20052;-66
2022/05/31 11:25:54;;;;;;;3.95;2.47;;;;;;;19.73;31.79;99168.47;5005496;28;20626;-65
2022/05/31 11:28:50;;;;;;;5.25;2.45;;;;;;;19.61;33.64;99171.47;5004803;28;20041;-65
2022/05/31 11:31:20;;;;;;;8.75;3.03;;;;;;;19.40;35.17;99175.22;5013779;28;20042;-64
2022/05/31 11:34:05;;;;;;;5.13;2.38;;;;;;;19.21;33.30;99175.31;5021917;28;20052;-66
2022/05/31 11:36:53;;;;;;;3.53;2.20;;;;;;;19.05;32.26;99182.09;5024089;28;20155;-67
2022/05/31 11:39:53;;;;;;;4.18;2.22;;;;;;;18.93;32.81;99185.09;4996075;28;20044;-66
2022/05/31 11:42:27;;;;;;;38.33;4.60;;;;;;;18.71;32.70;99184.38;5024223;28;20461;-66
2022/05/31 11:45:22;;;;;;;16.98;10.25;;;;;;;18.73;33.42;99176.22;5024754;28;20168;-65
2022/05/31 11:47:48;;;;;;;5.65;2.78;;;;;;;18.73;34.67;99178.88;5019294;28;20034;-67
2022/05/31 11:50:27;;;;;;;4.50;2.42;;;;;;;18.80;34.38;99177.34;5024464;28;20452;-67
2022/05/31 11:53:05;;;;;;;8.05;3.10;;;;;;;18.83;34.11;99177.94;5006294;28;20088;-66
2022/05/31 11:55:41;;;;;;;4.85;2.90;;;;;;;18.92;34.55;99180.72;5024419;28;20046;-68
2022/05/31 11:58:24;;;;;;;6.82;2.97;;;;;;;18.99;34.96;99171.97;5005327;28;20047;-66
2022/05/31 12:01:06;;;;;;;7.25;3.03;;;;;;;19.15;34.21;99173.19;5023795;28;20033;-66
2022/05/31 12:03:34;;;;;;;4.85;2.85;;;;;;;19.21;33.99;99175.31;5006701;28;20917;-64
2022/05/31 12:06:18;;;;;;;4.65;2.10;;;;;;;19.30;33.54;99167.25;5024108;28;20107;-67
2022/05/31 12:08:58;;;;;;;7.68;2.28;;;;;;;19.39;33.55;99170.84;5023949;28;20040;-68
2022/05/31 12:11:28;;;;;;;6.13;2.75;;;;;;;19.71;33.39;99170.47;5024106;28;20041;-65
2022/05/31 12:13:55;;;;;;;3.40;2.47;;;;;;;19.69;33.14;99166.25;5020575;28;20036;-66